createdAt,value
2018-03-04T00:01:03.060Z,3.66
2018-03-04T00:02:17.132Z,3.66
2018-03-04T00:03:31.511Z,3.64
2018-03-04T00:05:01.070Z,3.6
2018-03-04T00:06:15.126Z,3.61
2018-03-04T00:07:29.910Z,3.59
2018-03-04T00:08:44.481Z,3.6
2018-03-04T00:09:59.220Z,3.64
2018-03-04T00:11:28.685Z,3.67
2018-03-04T00:12:42.515Z,3.69
2018-03-04T00:13:56.834Z,3.72
2018-03-04T00:15:10.697Z,3.71
2018-03-04T00:16:25.714Z,3.7
2018-03-04T00:17:40.524Z,3.73
2018-03-04T00:18:54.917Z,3.74
2018-03-04T00:20:09.603Z,3.78
2018-03-04T00:21:23.931Z,3.8
2018-03-04T00:22:38.637Z,3.79
2018-03-04T00:23:52.518Z,3.74
2018-03-04T00:25:06.164Z,3.7
2018-03-04T00:26:20.405Z,3.67
2018-03-04T00:27:34.742Z,3.69
2018-03-04T00:28:48.769Z,3.72
2018-03-04T00:30:03.511Z,3.72
2018-03-04T00:33:30.691Z,3.72
2018-03-04T00:34:45.581Z,3.73
2018-03-04T00:36:14.858Z,3.77
2018-03-04T00:37:29.192Z,3.74
2018-03-04T00:38:43.028Z,3.69
2018-03-04T00:39:58.096Z,3.67
2018-03-04T00:41:12.926Z,3.63
2018-03-04T00:42:27.052Z,3.64
2018-03-04T00:43:41.673Z,3.65
2018-03-04T00:44:55.994Z,3.68
2018-03-04T00:46:10.881Z,3.7
2018-03-04T00:47:26.059Z,3.76
2018-03-04T00:48:40.150Z,3.81
2018-03-04T00:49:54.963Z,3.84
2018-03-04T00:51:09.522Z,3.86
2018-03-04T00:52:24.262Z,3.89
2018-03-04T00:53:38.861Z,3.92
2018-03-04T00:54:53.526Z,3.94
2018-03-04T00:56:07.884Z,3.95
2018-03-04T00:57:22.004Z,3.97
2018-03-04T00:58:36.688Z,4
2018-03-04T00:59:51.054Z,4.01
2018-03-04T01:01:05.901Z,4.03
2018-03-04T01:02:20.263Z,4.03
2018-03-04T01:03:33.911Z,4.05
2018-03-04T01:04:48.809Z,4.07
2018-03-04T01:06:03.380Z,4.11
2018-03-04T01:07:17.453Z,4.1
2018-03-04T01:08:32.072Z,4.09
2018-03-04T01:09:46.661Z,4.07
2018-03-04T01:11:01.380Z,4.06
2018-03-04T01:12:15.858Z,4.06
2018-03-04T01:13:30.455Z,4.07
2018-03-04T01:14:44.840Z,4.05
2018-03-04T01:15:59.429Z,4.06
2018-03-04T01:17:14.108Z,4.06
2018-03-04T01:18:28.338Z,4.04
2018-03-04T01:19:42.465Z,4.07
2018-03-04T01:20:56.628Z,4.05
2018-03-04T01:22:11.220Z,4.03
2018-03-04T01:23:25.857Z,4.03
2018-03-04T01:24:40.379Z,3.96
2018-03-04T01:25:54.349Z,3.9
2018-03-04T01:27:08.176Z,3.89
2018-03-04T01:28:22.272Z,3.86
2018-03-04T01:29:36.985Z,3.84
2018-03-04T01:30:51.974Z,3.85
2018-03-04T01:32:06.141Z,3.84
2018-03-04T01:33:20.668Z,3.87
2018-03-04T01:34:34.485Z,3.9
2018-03-04T01:35:49.382Z,3.91
2018-03-04T01:37:04.205Z,3.93
2018-03-04T01:38:18.803Z,3.94
2018-03-04T01:39:32.649Z,3.93
2018-03-04T01:40:46.485Z,3.94
2018-03-04T01:42:01.135Z,3.93
2018-03-04T01:43:15.206Z,3.9
2018-03-04T01:44:28.759Z,3.9
2018-03-04T01:45:42.871Z,3.87
2018-03-04T01:46:57.429Z,3.87
2018-03-04T01:48:12.492Z,3.83
2018-03-04T01:49:26.456Z,3.84
2018-03-04T01:50:40.751Z,3.85
2018-03-04T01:51:55.089Z,3.86
2018-03-04T01:53:09.368Z,3.9
2018-03-04T01:54:24.249Z,3.92
2018-03-04T01:55:38.449Z,3.95
2018-03-04T01:56:52.580Z,3.98
2018-03-04T01:58:06.897Z,4
2018-03-04T01:59:21.804Z,4.03
2018-03-04T02:00:36.385Z,4.04
2018-03-04T02:01:50.916Z,4.05
2018-03-04T02:03:05.269Z,4.07
2018-03-04T02:04:19.341Z,4.07
2018-03-04T02:05:33.361Z,4.07
2018-03-04T02:06:48.227Z,4.03
2018-03-04T02:08:02.258Z,4.01
2018-03-04T02:09:16.284Z,3.96
2018-03-04T02:10:44.975Z,3.97
2018-03-04T02:11:59.234Z,3.97
2018-03-04T02:13:13.870Z,3.96
2018-03-04T02:14:28.133Z,3.94
2018-03-04T02:15:41.993Z,3.92
2018-03-04T02:16:56.274Z,3.91
2018-03-04T02:18:10.086Z,3.89
2018-03-04T02:19:24.857Z,3.89
2018-03-04T02:20:38.412Z,3.89
2018-03-04T02:21:53.306Z,3.89
2018-03-04T02:23:07.622Z,3.89
2018-03-04T02:24:21.708Z,3.85
2018-03-04T02:25:36.303Z,3.84
2018-03-04T02:26:51.513Z,3.86
2018-03-04T02:28:06.022Z,3.85
2018-03-04T02:29:19.623Z,3.88
2018-03-04T02:30:33.954Z,3.87
2018-03-04T02:31:48.675Z,3.88
2018-03-04T02:33:03.534Z,3.89
2018-03-04T02:34:17.859Z,3.89
2018-03-04T02:35:32.185Z,3.87
2018-03-04T02:36:46.244Z,3.87
2018-03-04T02:38:00.858Z,3.84
2018-03-04T02:39:15.294Z,3.82
2018-03-04T02:40:29.337Z,3.81
2018-03-04T02:41:43.195Z,3.8
2018-03-04T02:42:57.298Z,3.79
2018-03-04T02:44:11.399Z,3.79
2018-03-04T02:45:25.205Z,3.78
2018-03-04T02:46:39.626Z,3.75
2018-03-04T02:47:53.433Z,3.71
2018-03-04T02:49:08.238Z,3.69
2018-03-04T02:50:23.104Z,3.67
2018-03-04T02:51:37.569Z,3.65
2018-03-04T02:52:52.467Z,3.63
2018-03-04T02:54:06.838Z,3.62
2018-03-04T02:55:21.152Z,3.62
2018-03-04T02:56:36.290Z,3.62
2018-03-04T02:57:50.484Z,3.63
2018-03-04T02:59:04.980Z,3.64
2018-03-04T03:00:19.341Z,3.64
2018-03-04T03:01:33.856Z,3.67
2018-03-04T03:02:49.010Z,3.68
2018-03-04T03:04:03.205Z,3.7
2018-03-04T03:05:16.876Z,3.74
2018-03-04T03:06:30.682Z,3.75
2018-03-04T03:07:44.623Z,3.78
2018-03-04T03:08:58.961Z,3.82
2018-03-04T03:10:13.920Z,3.86
2018-03-04T03:11:28.527Z,3.9
2018-03-04T03:12:42.789Z,3.93
2018-03-04T03:13:57.211Z,3.97
2018-03-04T03:15:11.873Z,3.99
2018-03-04T03:16:25.566Z,4.02
2018-03-04T03:17:39.870Z,4.05
2018-03-04T03:18:53.686Z,4.08
2018-03-04T03:20:08.098Z,4.11
2018-03-04T03:21:22.416Z,4.14
2018-03-04T03:22:36.470Z,4.16
2018-03-04T03:23:50.604Z,4.18
2018-03-04T03:25:04.640Z,4.21
2018-03-04T03:26:18.717Z,4.2
2018-03-04T03:27:33.598Z,4.17
2018-03-04T03:28:47.630Z,4.14
2018-03-04T03:30:01.482Z,4.11
2018-03-04T03:31:15.525Z,4.09
2018-03-04T03:32:29.093Z,4.06
2018-03-04T03:33:44.185Z,4.03
2018-03-04T03:34:59.252Z,4.01
2018-03-04T03:36:13.777Z,3.99
2018-03-04T03:37:28.097Z,3.98
2018-03-04T03:38:42.544Z,3.96
2018-03-04T03:39:57.378Z,3.95
2018-03-04T03:41:11.917Z,3.94
2018-03-04T03:42:26.206Z,3.93
2018-03-04T03:43:40.735Z,3.91
2018-03-04T03:44:54.532Z,3.89
2018-03-04T03:46:08.662Z,3.88
2018-03-04T03:47:23.000Z,3.88
2018-03-04T03:48:37.564Z,3.89
2018-03-04T03:49:52.086Z,3.89
2018-03-04T03:51:06.940Z,3.89
2018-03-04T03:52:22.042Z,3.88
2018-03-04T03:53:36.330Z,3.86
2018-03-04T03:54:50.158Z,3.84
2018-03-04T03:56:04.667Z,3.83
2018-03-04T03:57:33.881Z,3.8
2018-03-04T03:58:48.671Z,3.73
2018-03-04T04:00:02.786Z,3.66
2018-03-04T04:01:17.356Z,3.6
2018-03-04T04:02:31.951Z,3.56
2018-03-04T04:03:46.379Z,3.53
2018-03-04T04:05:00.921Z,3.53
2018-03-04T04:06:15.263Z,3.51
2018-03-04T04:07:29.592Z,3.46
2018-03-04T04:08:43.966Z,3.45
2018-03-04T04:09:58.096Z,3.46
2018-03-04T04:11:12.660Z,3.47
2018-03-04T04:12:26.956Z,3.49
2018-03-04T04:13:41.300Z,3.52
2018-03-04T04:14:55.429Z,3.55
2018-03-04T04:16:09.073Z,3.59
2018-03-04T04:17:23.695Z,3.63
2018-03-04T04:18:38.024Z,3.66
2018-03-04T04:19:52.029Z,3.68
2018-03-04T04:21:06.850Z,3.71
2018-03-04T04:22:36.040Z,3.73
2018-03-04T04:23:50.795Z,3.74
2018-03-04T04:25:05.085Z,3.77
2018-03-04T04:26:19.639Z,3.77
2018-03-04T04:27:33.679Z,3.79
2018-03-04T04:28:48.444Z,3.78
2018-03-04T04:30:03.276Z,3.77
2018-03-04T04:31:17.776Z,3.71
2018-03-04T04:32:32.057Z,3.68
2018-03-04T04:33:46.147Z,3.65
2018-03-04T04:35:00.228Z,3.65
2018-03-04T04:36:14.360Z,3.61
2018-03-04T04:37:28.695Z,3.55
2018-03-04T04:38:42.682Z,3.55
2018-03-04T04:40:11.640Z,3.54
2018-03-04T04:41:26.487Z,3.53
2018-03-04T04:42:41.005Z,3.56
2018-03-04T04:43:55.620Z,3.61
2018-03-04T04:45:09.466Z,3.63
2018-03-04T04:46:23.573Z,3.67
2018-03-04T04:47:38.121Z,3.71
2018-03-04T04:48:53.245Z,3.78
2018-03-04T04:50:07.321Z,3.85
2018-03-04T04:51:21.405Z,3.9
2018-03-04T04:52:35.768Z,3.94
2018-03-04T04:53:49.933Z,4.01
2018-03-04T04:55:05.169Z,4.06
2018-03-04T04:56:19.540Z,4.1
2018-03-04T04:57:33.428Z,4.14
2018-03-04T04:58:48.241Z,4.16
2018-03-04T05:00:02.337Z,4.17
2018-03-04T05:01:16.860Z,4.16
2018-03-04T05:02:30.944Z,4.16
2018-03-04T05:03:44.837Z,4.17
2018-03-04T05:04:58.674Z,4.18
2018-03-04T05:06:12.760Z,4.22
2018-03-04T05:07:26.676Z,4.25
2018-03-04T05:08:40.676Z,4.26
2018-03-04T05:09:54.842Z,4.3
2018-03-04T05:11:08.938Z,4.31
2018-03-04T05:12:23.021Z,4.3
2018-03-04T05:13:37.386Z,4.3
2018-03-04T05:14:51.270Z,4.27
2018-03-04T05:16:05.889Z,4.29
2018-03-04T05:17:20.287Z,4.29
2018-03-04T05:18:34.139Z,4.28
2018-03-04T05:19:48.489Z,4.28
2018-03-04T05:21:02.893Z,4.28
2018-03-04T05:22:16.509Z,4.31
2018-03-04T05:23:31.075Z,4.34
2018-03-04T05:24:44.912Z,4.36
2018-03-04T05:25:59.296Z,4.39
2018-03-04T05:27:13.572Z,4.38
2018-03-04T05:28:27.751Z,4.4
2018-03-04T05:29:41.816Z,4.43
2018-03-04T05:30:56.370Z,4.46
2018-03-04T05:32:10.496Z,4.48
2018-03-04T05:33:24.663Z,4.49
2018-03-04T05:34:39.481Z,4.51
2018-03-04T05:35:53.824Z,4.53
2018-03-04T05:37:07.662Z,4.55
2018-03-04T05:38:22.090Z,4.55
2018-03-04T05:39:36.288Z,4.57
2018-03-04T05:41:05.487Z,4.58
2018-03-04T05:42:20.019Z,4.59
2018-03-04T05:43:35.062Z,4.61
2018-03-04T05:44:49.672Z,4.62
2018-03-04T05:46:03.924Z,4.64
2018-03-04T05:47:17.979Z,4.65
2018-03-04T05:48:31.827Z,4.66
2018-03-04T05:49:46.337Z,4.63
2018-03-04T05:51:01.120Z,4.62
2018-03-04T05:52:15.502Z,4.59
2018-03-04T05:53:29.808Z,4.61
2018-03-04T05:54:44.135Z,4.61
2018-03-04T05:55:58.038Z,4.59
2018-03-04T05:57:12.379Z,4.6
2018-03-04T05:58:26.279Z,4.61
2018-03-04T05:59:40.402Z,4.6
2018-03-04T06:00:55.226Z,4.59
2018-03-04T06:02:09.668Z,4.54
2018-03-04T06:03:24.116Z,4.51
2018-03-04T06:06:07.443Z,4.44
2018-03-04T06:07:21.777Z,4.44
2018-03-04T06:08:36.301Z,4.44
2018-03-04T06:09:50.867Z,4.43
2018-03-04T06:11:05.214Z,4.4
2018-03-04T06:12:19.557Z,4.38
2018-03-04T06:13:34.145Z,4.35
2018-03-04T06:14:48.831Z,4.32
2018-03-04T06:16:03.094Z,4.27
2018-03-04T06:17:16.962Z,4.24
2018-03-04T06:18:30.556Z,4.19
2018-03-04T06:19:44.895Z,4.17
2018-03-04T06:20:59.223Z,4.16
2018-03-04T06:22:13.764Z,4.15
2018-03-04T06:23:28.159Z,4.16
2018-03-04T06:24:42.576Z,4.18
2018-03-04T06:25:56.394Z,4.2
2018-03-04T06:27:11.040Z,4.22
2018-03-04T06:28:25.899Z,4.25
2018-03-04T06:29:39.840Z,4.27
2018-03-04T06:30:54.281Z,4.29
2018-03-04T06:32:08.681Z,4.34
2018-03-04T06:33:23.476Z,4.39
2018-03-04T06:34:37.816Z,4.46
2018-03-04T06:35:51.890Z,4.52
2018-03-04T06:37:06.259Z,4.58
2018-03-04T06:38:20.135Z,4.63
2018-03-04T06:39:35.266Z,4.68
2018-03-04T06:40:49.538Z,4.72
2018-03-04T06:42:04.075Z,4.75
2018-03-04T06:43:18.747Z,4.75
2018-03-04T06:44:33.355Z,4.76
2018-03-04T06:45:48.310Z,4.8
2018-03-04T06:47:02.752Z,4.79
2018-03-04T06:48:16.637Z,4.77
2018-03-04T06:49:30.713Z,4.75
2018-03-04T06:50:45.045Z,4.73
2018-03-04T06:51:59.703Z,4.72
2018-03-04T06:53:14.691Z,4.7
2018-03-04T06:54:28.532Z,4.69
2018-03-04T06:55:42.741Z,4.67
2018-03-04T06:56:56.574Z,4.67
2018-03-04T06:58:10.498Z,4.69
2018-03-04T06:59:24.834Z,4.71
2018-03-04T07:00:38.970Z,4.74
2018-03-04T07:01:53.293Z,4.77
2018-03-04T07:03:08.107Z,4.8
2018-03-04T07:04:22.919Z,4.8
2018-03-04T07:05:36.759Z,4.81
2018-03-04T07:06:50.915Z,4.83
2018-03-04T07:08:05.247Z,4.83
2018-03-04T07:09:19.097Z,4.84
2018-03-04T07:10:33.760Z,4.83
2018-03-04T07:11:47.408Z,4.83
2018-03-04T07:13:01.863Z,4.83
2018-03-04T07:14:16.487Z,4.81
2018-03-04T07:15:30.342Z,4.83
2018-03-04T07:16:44.847Z,4.77
2018-03-04T07:17:59.915Z,4.75
2018-03-04T07:19:14.281Z,4.76
2018-03-04T07:20:28.402Z,4.77
2018-03-04T07:21:42.573Z,4.74
2018-03-04T07:22:56.940Z,4.76
2018-03-04T07:24:11.304Z,4.78
2018-03-04T07:25:25.745Z,4.76
2018-03-04T07:26:39.339Z,4.77
2018-03-04T07:27:53.194Z,4.74
2018-03-04T07:29:07.924Z,4.7
2018-03-04T07:30:22.255Z,4.67
2018-03-04T07:31:36.877Z,4.69
2018-03-04T07:32:50.684Z,4.74
2018-03-04T07:34:04.896Z,4.79
2018-03-04T07:35:19.520Z,4.84
2018-03-04T07:36:34.073Z,4.93
2018-03-04T07:37:48.394Z,5
2018-03-04T07:39:01.716Z,5.05
2018-03-04T07:40:16.053Z,5.12
2018-03-04T07:41:30.266Z,5.15
2018-03-04T07:42:44.594Z,5.23
2018-03-04T07:43:59.498Z,5.27
2018-03-04T07:45:13.331Z,5.3
2018-03-04T07:46:28.179Z,5.32
2018-03-04T07:47:42.915Z,5.34
2018-03-04T07:48:56.640Z,5.36
2018-03-04T07:50:10.970Z,5.38
2018-03-04T07:51:25.579Z,5.37
2018-03-04T07:52:39.489Z,5.39
2018-03-04T07:53:54.551Z,5.39
2018-03-04T07:55:09.106Z,5.39
2018-03-04T07:56:23.191Z,5.44
2018-03-04T07:57:37.749Z,5.47
2018-03-04T07:58:51.847Z,5.5
2018-03-04T08:00:06.077Z,5.5
2018-03-04T08:01:19.652Z,5.49
2018-03-04T08:02:34.091Z,5.44
2018-03-04T08:03:48.467Z,5.43
2018-03-04T08:05:02.871Z,5.41
2018-03-04T08:06:17.143Z,5.4
2018-03-04T08:07:30.991Z,5.4
2018-03-04T08:08:45.386Z,5.38
2018-03-04T08:09:59.256Z,5.4
2018-03-04T08:11:13.321Z,5.43
2018-03-04T08:12:28.467Z,5.48
2018-03-04T08:13:42.873Z,5.52
2018-03-04T08:14:56.739Z,5.54
2018-03-04T08:16:11.359Z,5.56
2018-03-04T08:17:25.512Z,5.59
2018-03-04T08:18:40.261Z,5.63
2018-03-04T08:19:54.714Z,5.66
2018-03-04T08:21:09.060Z,5.65
2018-03-04T08:22:23.158Z,5.65
2018-03-04T08:23:37.505Z,5.69
2018-03-04T08:24:52.306Z,5.71
2018-03-04T08:26:06.645Z,5.73
2018-03-04T08:27:21.063Z,5.78
2018-03-04T08:28:35.668Z,5.79
2018-03-04T08:29:49.808Z,5.81
2018-03-04T08:31:04.463Z,5.76
2018-03-04T08:32:18.579Z,5.7
2018-03-04T08:33:32.197Z,5.65
2018-03-04T08:34:46.554Z,5.66
2018-03-04T08:36:00.265Z,5.75
2018-03-04T08:37:14.858Z,5.76
2018-03-04T08:38:28.936Z,5.82
2018-03-04T08:39:42.799Z,5.88
2018-03-04T08:40:57.237Z,5.94
2018-03-04T08:42:11.621Z,5.99
2018-03-04T08:43:26.465Z,6.04
2018-03-04T08:44:40.685Z,6.03
2018-03-04T08:45:54.750Z,6.04
2018-03-04T08:47:09.690Z,6.04
2018-03-04T08:48:24.238Z,6.09
2018-03-04T08:49:39.483Z,6.13
2018-03-04T08:50:53.646Z,6.15
2018-03-04T08:52:07.710Z,6.13
2018-03-04T08:53:21.554Z,6.14
2018-03-04T08:54:36.366Z,6.17
2018-03-04T08:55:50.493Z,6.16
2018-03-04T08:57:04.684Z,6.11
2018-03-04T08:58:18.733Z,6.14
2018-03-04T08:59:33.155Z,6.22
2018-03-04T09:00:47.200Z,6.3
2018-03-04T09:02:01.575Z,6.39
2018-03-04T09:03:16.145Z,6.49
2018-03-04T09:04:30.441Z,6.62
2018-03-04T09:05:44.704Z,6.74
2018-03-04T09:06:59.512Z,6.87
2018-03-04T09:08:13.653Z,6.96
2018-03-04T09:09:27.820Z,7.04
2018-03-04T09:10:42.386Z,7.1
2018-03-04T09:11:57.036Z,7.2
2018-03-04T09:13:11.113Z,7.3
2018-03-04T09:14:25.474Z,7.39
2018-03-04T09:15:40.061Z,7.49
2018-03-04T09:16:54.545Z,7.59
2018-03-04T09:18:09.184Z,7.63
2018-03-04T09:19:23.591Z,7.66
2018-03-04T09:20:37.724Z,7.69
2018-03-04T09:21:52.308Z,7.7
2018-03-04T09:23:06.633Z,7.73
2018-03-04T09:24:21.000Z,7.76
2018-03-04T09:25:35.382Z,7.79
2018-03-04T09:26:50.172Z,7.84
2018-03-04T09:28:03.791Z,7.88
2018-03-04T09:29:17.793Z,7.89
2018-03-04T09:30:32.286Z,7.9
2018-03-04T09:31:45.951Z,7.9
2018-03-04T09:33:00.126Z,7.93
2018-03-04T09:34:14.419Z,7.95
2018-03-04T09:35:28.857Z,7.97
2018-03-04T09:36:42.998Z,7.99
2018-03-04T09:37:57.120Z,8.03
2018-03-04T09:39:11.329Z,8.02
2018-03-04T09:40:25.618Z,8.05
2018-03-04T09:41:40.121Z,8.07
2018-03-04T09:42:53.941Z,8.14
2018-03-04T09:44:08.283Z,8.2
2018-03-04T09:45:22.959Z,8.25
2018-03-04T09:46:36.825Z,8.3
2018-03-04T09:47:51.522Z,8.34
2018-03-04T09:49:06.241Z,8.4
2018-03-04T09:50:20.318Z,8.47
2018-03-04T09:51:34.496Z,8.54
2018-03-04T09:52:48.315Z,8.65
2018-03-04T09:54:02.380Z,8.76
2018-03-04T09:55:16.467Z,8.87
2018-03-04T09:56:31.039Z,9.05
2018-03-04T09:57:45.530Z,9.21
2018-03-04T09:59:00.109Z,9.36
2018-03-04T10:00:14.650Z,9.45
2018-03-04T10:01:28.481Z,9.53
2018-03-04T10:02:42.515Z,9.59
2018-03-04T10:03:57.078Z,9.64
2018-03-04T10:05:10.934Z,9.59
2018-03-04T10:06:25.270Z,9.47
2018-03-04T10:07:39.364Z,9.28
2018-03-04T10:08:53.661Z,9.16
2018-03-04T10:10:08.251Z,9.06
2018-03-04T10:11:22.598Z,8.9
2018-03-04T10:12:36.940Z,8.78
2018-03-04T10:13:51.020Z,8.67
2018-03-04T10:15:05.175Z,8.56
2018-03-04T10:16:20.154Z,8.54
2018-03-04T10:17:34.238Z,8.59
2018-03-04T10:18:47.812Z,8.64
2018-03-04T10:20:02.414Z,8.71
2018-03-04T10:21:16.602Z,8.79
2018-03-04T10:22:31.737Z,8.84
2018-03-04T10:23:46.041Z,8.84
2018-03-04T10:25:00.349Z,8.85
2018-03-04T10:26:14.215Z,8.85
2018-03-04T10:27:28.501Z,8.88
2018-03-04T10:28:42.869Z,8.88
2018-03-04T10:29:57.250Z,8.88
2018-03-04T10:31:11.617Z,8.82
2018-03-04T10:32:25.911Z,8.79
2018-03-04T10:33:40.516Z,8.82
2018-03-04T10:34:55.140Z,8.85
2018-03-04T10:36:09.689Z,8.89
2018-03-04T10:37:23.536Z,8.96
2018-03-04T10:38:37.871Z,8.98
2018-03-04T10:39:52.029Z,9.06
2018-03-04T10:41:06.867Z,9.16
2018-03-04T10:42:20.832Z,9.23
2018-03-04T10:43:35.162Z,9.33
2018-03-04T10:44:49.232Z,9.34
2018-03-04T10:46:03.884Z,9.45
2018-03-04T10:47:18.507Z,9.59
2018-03-04T10:48:33.055Z,9.75
2018-03-04T10:49:47.512Z,9.94
2018-03-04T10:51:01.879Z,10.11
2018-03-04T10:52:15.809Z,10.25
2018-03-04T10:53:30.015Z,10.34
2018-03-04T10:54:44.652Z,10.39
2018-03-04T10:55:58.755Z,10.45
2018-03-04T10:57:12.827Z,10.45
2018-03-04T10:58:26.666Z,10.43
2018-03-04T10:59:41.223Z,10.43
2018-03-04T11:00:55.122Z,10.39
2018-03-04T11:02:09.719Z,10.16
2018-03-04T11:03:23.005Z,9.83
2018-03-04T11:04:36.593Z,9.64
2018-03-04T11:05:51.472Z,9.55
2018-03-04T11:07:06.547Z,9.53
2018-03-04T11:08:20.687Z,9.54
2018-03-04T11:09:34.774Z,9.54
2018-03-04T11:10:49.517Z,9.49
2018-03-04T11:12:03.787Z,9.45
2018-03-04T11:13:17.700Z,9.39
2018-03-04T11:14:31.796Z,9.39
2018-03-04T11:15:45.867Z,9.37
2018-03-04T11:16:59.645Z,9.3
2018-03-04T11:18:14.595Z,9.23
2018-03-04T11:19:28.448Z,9.16
2018-03-04T11:20:43.131Z,9.14
2018-03-04T11:21:56.975Z,9.16
2018-03-04T11:23:11.895Z,9.14
2018-03-04T11:24:26.535Z,9.12
2018-03-04T11:25:40.879Z,9.13
2018-03-04T11:26:55.665Z,9.21
2018-03-04T11:28:09.533Z,9.3
2018-03-04T11:29:23.586Z,9.36
2018-03-04T11:30:38.688Z,9.38
2018-03-04T11:31:52.002Z,9.39
2018-03-04T11:33:05.968Z,9.48
2018-03-04T11:34:19.812Z,9.5
2018-03-04T11:35:33.897Z,9.54
2018-03-04T11:36:48.750Z,9.58
2018-03-04T11:38:03.191Z,9.64
2018-03-04T11:39:17.441Z,9.73
2018-03-04T11:40:31.559Z,9.8
2018-03-04T11:41:45.447Z,9.86
2018-03-04T11:43:00.056Z,9.89
2018-03-04T11:44:13.947Z,9.92
2018-03-04T11:45:28.301Z,9.92
2018-03-04T11:46:42.123Z,9.95
2018-03-04T11:47:56.920Z,9.98
2018-03-04T11:49:12.049Z,9.96
2018-03-04T11:50:25.601Z,9.98
2018-03-04T11:51:40.163Z,10
2018-03-04T11:52:53.995Z,10.04
2018-03-04T11:54:08.831Z,10.11
2018-03-04T11:55:23.217Z,10.14
2018-03-04T11:56:38.040Z,10.15
2018-03-04T11:57:53.047Z,10.18
2018-03-04T11:59:07.114Z,10.15
2018-03-04T12:00:21.218Z,10.17
2018-03-04T12:01:35.624Z,10.17
2018-03-04T12:02:49.747Z,10.22
2018-03-04T12:04:04.074Z,10.28
2018-03-04T12:05:18.692Z,10.32
2018-03-04T12:06:32.819Z,10.38
2018-03-04T12:07:48.354Z,10.43
2018-03-04T12:09:02.973Z,10.44
2018-03-04T12:10:16.985Z,10.45
2018-03-04T12:11:30.996Z,10.47
2018-03-04T12:12:45.030Z,10.52
2018-03-04T12:13:59.774Z,10.53
2018-03-04T12:15:14.134Z,10.56
2018-03-04T12:16:28.228Z,10.61
2018-03-04T12:17:42.584Z,10.6
2018-03-04T12:18:57.192Z,10.53
2018-03-04T12:20:12.168Z,10.5
2018-03-04T12:21:26.051Z,10.52
2018-03-04T12:22:40.416Z,10.53
2018-03-04T12:23:54.617Z,10.52
2018-03-04T12:25:08.833Z,10.54
2018-03-04T12:26:23.843Z,10.56
2018-03-04T12:27:37.952Z,10.64
2018-03-04T12:28:52.861Z,10.75
2018-03-04T12:30:07.702Z,10.82
2018-03-04T12:31:22.146Z,10.89
2018-03-04T12:32:36.607Z,10.96
2018-03-04T12:33:51.005Z,10.97
2018-03-04T12:35:04.917Z,10.92
2018-03-04T12:36:19.961Z,10.91
2018-03-04T12:37:34.909Z,10.94
2018-03-04T12:38:49.178Z,10.96
2018-03-04T12:40:03.846Z,10.99
2018-03-04T12:41:18.920Z,11.02
2018-03-04T12:42:34.153Z,11.09
2018-03-04T12:43:47.848Z,11.13
2018-03-04T12:45:02.328Z,11.17
2018-03-04T12:46:17.218Z,11.22
2018-03-04T12:47:31.738Z,11.28
2018-03-04T12:48:46.143Z,11.32
2018-03-04T12:50:00.843Z,11.37
2018-03-04T12:51:15.383Z,11.43
2018-03-04T12:52:29.530Z,11.48
2018-03-04T12:53:43.930Z,11.55
2018-03-04T12:54:58.407Z,11.58
2018-03-04T12:56:12.989Z,11.6
2018-03-04T12:57:28.223Z,11.64
2018-03-04T12:58:42.528Z,11.72
2018-03-04T12:59:56.814Z,11.78
2018-03-04T13:01:11.266Z,11.82
2018-03-04T13:02:24.670Z,11.8
2018-03-04T13:03:39.206Z,11.83
2018-03-04T13:04:53.108Z,11.89
2018-03-04T13:06:07.975Z,11.92
2018-03-04T13:07:22.994Z,11.96
2018-03-04T13:08:37.369Z,12
2018-03-04T13:09:51.511Z,12.01
2018-03-04T13:11:06.127Z,12.03
2018-03-04T13:12:20.724Z,12.06
2018-03-04T13:13:34.554Z,12.1
2018-03-04T13:14:48.442Z,12.2
2018-03-04T13:16:02.652Z,12.3
2018-03-04T13:17:16.549Z,12.39
2018-03-04T13:18:31.167Z,12.46
2018-03-04T13:19:45.738Z,12.51
2018-03-04T13:20:59.892Z,12.57
2018-03-04T13:22:14.149Z,12.62
2018-03-04T13:23:28.651Z,12.67
2018-03-04T13:24:43.161Z,12.67
2018-03-04T13:25:57.407Z,12.71
2018-03-04T13:27:11.776Z,12.76
2018-03-04T13:28:26.222Z,12.78
2018-03-04T13:29:40.827Z,12.8
2018-03-04T13:30:54.959Z,12.85
2018-03-04T13:32:09.957Z,12.87
2018-03-04T13:33:24.333Z,12.88
2018-03-04T13:34:39.262Z,12.88
2018-03-04T13:35:53.185Z,12.9
2018-03-04T13:37:07.419Z,12.9
2018-03-04T13:38:21.877Z,12.88
2018-03-04T13:39:36.252Z,12.89
2018-03-04T13:40:51.105Z,12.92
2018-03-04T13:42:05.468Z,12.95
2018-03-04T13:43:19.382Z,12.87
2018-03-04T13:44:33.497Z,12.83
2018-03-04T13:45:47.623Z,12.81
2018-03-04T13:47:02.049Z,12.83
2018-03-04T13:48:16.408Z,12.86
2018-03-04T13:49:30.543Z,12.91
2018-03-04T13:50:44.831Z,12.91
2018-03-04T13:51:59.171Z,12.87
2018-03-04T13:53:13.818Z,12.8
2018-03-04T13:54:28.168Z,12.84
2018-03-04T13:55:42.582Z,12.9
2018-03-04T13:56:56.768Z,12.95
2018-03-04T13:58:10.897Z,12.99
2018-03-04T13:59:25.054Z,13.01
2018-03-04T14:00:39.452Z,13
2018-03-04T14:01:53.560Z,13.02
2018-03-04T14:03:08.194Z,13.03
2018-03-04T14:04:22.522Z,13.09
2018-03-04T14:05:36.920Z,13.13
2018-03-04T14:06:50.561Z,13.16
2018-03-04T14:08:04.703Z,13.16
2018-03-04T14:09:19.337Z,13.16
2018-03-04T14:10:33.533Z,13.16
2018-03-04T14:11:48.404Z,13.1
2018-03-04T14:13:02.749Z,13.11
2018-03-04T14:14:16.368Z,13.12
2018-03-04T14:15:30.777Z,13.11
2018-03-04T14:16:45.285Z,13.12
2018-03-04T14:17:59.900Z,13.14
2018-03-04T14:19:14.280Z,13.13
2018-03-04T14:20:28.867Z,13.15
2018-03-04T14:21:43.946Z,13.14
2018-03-04T14:22:58.281Z,13.18
2018-03-04T14:24:13.431Z,13.23
2018-03-04T14:25:27.746Z,13.28
2018-03-04T14:26:42.124Z,13.31
2018-03-04T14:27:57.344Z,13.35
2018-03-04T14:29:11.955Z,13.37
2018-03-04T14:30:26.463Z,13.38
2018-03-04T14:31:40.388Z,13.38
2018-03-04T14:32:54.006Z,13.43
2018-03-04T14:34:08.700Z,13.48
2018-03-04T14:35:23.310Z,13.56
2018-03-04T14:36:37.727Z,13.63
2018-03-04T14:37:52.080Z,13.71
2018-03-04T14:39:06.427Z,13.76
2018-03-04T14:40:20.730Z,13.8
2018-03-04T14:41:34.867Z,13.84
2018-03-04T14:42:48.784Z,13.86
2018-03-04T14:44:03.283Z,13.87
2018-03-04T14:45:17.619Z,13.86
2018-03-04T14:46:31.563Z,13.84
2018-03-04T14:47:46.406Z,13.77
2018-03-04T14:49:00.828Z,13.77
2018-03-04T14:50:15.664Z,13.77
2018-03-04T14:51:29.488Z,13.73
2018-03-04T14:52:44.205Z,13.68
2018-03-04T14:53:58.532Z,13.62
2018-03-04T14:55:13.220Z,13.6
2018-03-04T14:56:27.879Z,13.56
2018-03-04T14:57:42.539Z,13.53
2018-03-04T14:58:57.564Z,13.48
2018-03-04T15:00:11.472Z,13.51
2018-03-04T15:01:25.958Z,13.51
2018-03-04T15:02:40.061Z,13.52
2018-03-04T15:03:54.242Z,13.51
2018-03-04T15:05:08.844Z,13.49
2018-03-04T15:06:22.789Z,13.49
2018-03-04T15:07:37.611Z,13.51
2018-03-04T15:08:52.008Z,13.51
2018-03-04T15:10:06.622Z,13.5
2018-03-04T15:11:20.231Z,13.49
2018-03-04T15:12:34.890Z,13.47
2018-03-04T15:13:49.724Z,13.49
2018-03-04T15:15:04.318Z,13.47
2018-03-04T15:16:18.427Z,13.45
2018-03-04T15:17:33.208Z,13.43
2018-03-04T15:18:47.331Z,13.39
2018-03-04T15:20:01.990Z,13.37
2018-03-04T15:21:16.109Z,13.34
2018-03-04T15:22:30.235Z,13.29
2018-03-04T15:23:44.496Z,13.29
2018-03-04T15:24:59.357Z,13.28
2018-03-04T15:26:13.825Z,13.31
2018-03-04T15:27:28.316Z,13.31
2018-03-04T15:28:42.432Z,13.32
2018-03-04T15:29:56.239Z,13.33
2018-03-04T15:31:10.098Z,13.34
2018-03-04T15:32:24.565Z,13.33
2018-03-04T15:33:38.928Z,13.3
2018-03-04T15:34:53.363Z,13.27
2018-03-04T15:36:07.940Z,13.26
2018-03-04T15:37:22.029Z,13.28
2018-03-04T15:38:36.262Z,13.26
2018-03-04T15:39:50.419Z,13.24
2018-03-04T15:41:04.796Z,13.24
2018-03-04T15:42:18.933Z,13.24
2018-03-04T15:43:33.542Z,13.21
2018-03-04T15:44:48.489Z,13.2
2018-03-04T15:46:02.673Z,13.19
2018-03-04T15:47:16.783Z,13.13
2018-03-04T15:48:31.163Z,13.12
2018-03-04T15:49:45.985Z,13.08
2018-03-04T15:51:00.516Z,13.04
2018-03-04T15:52:14.656Z,13
2018-03-04T15:53:28.804Z,12.99
2018-03-04T15:54:42.901Z,12.94
2018-03-04T15:55:57.136Z,12.9
2018-03-04T15:57:11.364Z,12.86
2018-03-04T15:58:26.241Z,12.82
2018-03-04T15:59:40.579Z,12.79
2018-03-04T16:00:55.218Z,12.77
2018-03-04T16:02:09.102Z,12.69
2018-03-04T16:03:23.354Z,12.58
2018-03-04T16:04:36.936Z,12.52
2018-03-04T16:05:51.292Z,12.45
2018-03-04T16:07:06.161Z,12.42
2018-03-04T16:08:20.523Z,12.36
2018-03-04T16:09:34.716Z,12.3
2018-03-04T16:10:48.806Z,12.26
2018-03-04T16:12:02.769Z,12.21
2018-03-04T16:13:16.600Z,12.17
2018-03-04T16:14:30.971Z,12.13
2018-03-04T16:15:45.642Z,12.08
2018-03-04T16:16:59.714Z,12.05
2018-03-04T16:18:14.610Z,12.02
2018-03-04T16:19:28.950Z,12.01
2018-03-04T16:20:43.824Z,11.96
2018-03-04T16:21:58.460Z,11.91
2018-03-04T16:23:12.873Z,11.85
2018-03-04T16:24:27.124Z,11.78
2018-03-04T16:25:41.009Z,11.74
2018-03-04T16:26:55.124Z,11.73
2018-03-04T16:28:09.407Z,11.65
2018-03-04T16:29:22.946Z,11.6